Time;durP1;ratioP1;P1;durP2;ratioP2;P2;SDS_P1;SDS_P2;PMS_P1;PMS_P2;Temp;Humidity;BMP_temperature;BMP_pressure;BME280_temperature;BME280_humidity;BME280_pressure;Samples;Min_cycle;Max_cycle;Signal;HPM_P1;HPM_P2
2021/10/31 00:00:45;;;;;;;;;10.50;9.50;;;;;-143.93;100.00;62969.28;5016036;28;45530;-71
2021/10/31 00:03:10;;;;;;;;;12.25;9.00;;;;;-143.93;100.00;62969.28;5016071;28;48937;-70
2021/10/31 00:05:36;;;;;;;;;11.75;10.00;;;;;-143.93;100.00;62969.28;5015387;28;47823;-70
2021/10/31 00:08:01;;;;;;;;;11.00;10.00;;;;;-143.93;100.00;62969.28;5016061;28;45584;-70
2021/10/31 00:10:26;;;;;;;;;10.50;10.00;;;;;-143.93;100.00;62969.28;5015391;28;45602;-70
2021/10/31 00:12:52;;;;;;;;;8.75;8.00;;;;;-143.93;100.00;62969.28;5016028;28;45242;-70
2021/10/31 00:15:17;;;;;;;;;11.50;9.00;;;;;-143.93;100.00;62969.28;5015403;28;45401;-70
2021/10/31 00:17:42;;;;;;;;;11.00;9.50;;;;;-143.93;100.00;62969.28;5015223;28;48544;-71
2021/10/31 00:20:09;;;;;;;;;8.00;8.00;;;;;-143.93;100.00;62969.28;5015681;28;45462;-70
2021/10/31 00:22:35;;;;;;;;;9.00;9.00;;;;;-143.93;100.00;62969.28;5014540;28;45748;-70
2021/10/31 00:25:00;;;;;;;;;9.75;9.00;;;;;-143.93;100.00;62969.28;5015833;28;45546;-70
2021/10/31 00:27:26;;;;;;;;;10.00;10.00;;;;;-143.93;100.00;62969.28;5015135;28;46270;-71
2021/10/31 00:29:51;;;;;;;;;13.25;10.00;;;;;-143.93;100.00;62969.28;5015127;28;45497;-70
2021/10/31 00:32:16;;;;;;;;;11.00;11.00;;;;;-143.93;100.00;62969.28;5015097;28;45401;-70
2021/10/31 00:34:42;;;;;;;;;10.50;9.75;;;;;-143.93;100.00;62969.28;5014577;28;45412;-70
2021/10/31 00:37:07;;;;;;;;;14.50;11.00;;;;;-143.93;100.00;62969.28;5014132;28;45628;-70
2021/10/31 00:39:33;;;;;;;;;10.00;10.00;;;;;-143.93;100.00;62969.28;4997711;28;45436;-70
2021/10/31 00:41:58;;;;;;;;;10.00;10.00;;;;;-143.93;100.00;62969.28;5015673;28;45424;-70
2021/10/31 00:44:23;;;;;;;;;11.00;9.75;;;;;-143.93;100.00;62969.28;4997578;28;45984;-70
2021/10/31 00:46:49;;;;;;;;;15.00;11.00;;;;;-143.93;100.00;62969.28;5014256;28;46524;-70
2021/10/31 00:49:14;;;;;;;;;10.00;8.75;;;;;-143.93;100.00;62969.28;5015266;28;45646;-70
2021/10/31 00:51:40;;;;;;;;;12.75;9.25;;;;;-143.93;100.00;62969.28;5014786;28;45432;-70
2021/10/31 00:54:06;;;;;;;;;10.25;9.75;;;;;-143.93;100.00;62969.28;5015372;28;45341;-70
2021/10/31 00:56:32;;;;;;;;;10.75;8.25;;;;;-143.93;100.00;62969.28;5014862;28;46602;-70
2021/10/31 00:58:58;;;;;;;;;10.50;9.75;;;;;-143.93;100.00;62969.28;5014793;28;45970;-70
2021/10/31 01:01:25;;;;;;;;;9.00;9.00;;;;;-143.93;100.00;62969.28;5013797;28;45499;-70
2021/10/31 01:03:52;;;;;;;;;8.25;7.75;;;;;-143.93;100.00;62969.28;5013228;28;45621;-70
2021/10/31 01:06:57;;;;;;;;;13.75;9.50;;;;;-143.93;100.00;62969.28;5015083;28;46215;-70
2021/10/31 01:09:29;;;;;;;;;12.50;11.50;;;;;-143.93;100.00;62969.28;4934769;28;45796;-70
2021/10/31 01:12:18;;;;;;;;;13.75;10.25;;;;;-143.93;100.00;62969.28;4934955;28;45386;-70
2021/10/31 01:14:50;;;;;;;;;9.75;9.00;;;;;-143.93;100.00;62969.28;4934467;28;45472;-70
2021/10/31 01:17:42;;;;;;;;;11.00;10.25;;;;;-143.93;100.00;62969.28;4933933;28;45474;-70
2021/10/31 01:20:32;;;;;;;;;9.50;9.50;;;;;-143.93;100.00;62969.28;4933663;28;45623;-70
2021/10/31 01:23:09;;;;;;;;;16.25;10.00;;;;;-143.93;100.00;62969.28;4934032;28;45378;-70
2021/10/31 01:25:44;;;;;;;;;12.50;10.75;;;;;-143.93;100.00;62969.28;4934230;28;45603;-70
2021/10/31 01:28:22;;;;;;;;;10.50;8.00;;;;;-143.93;100.00;62969.28;4933933;28;46536;-70
2021/10/31 01:31:18;;;;;;;;;11.75;10.75;;;;;-143.93;100.00;62969.28;4934313;28;45276;-70
2021/10/31 01:33:54;;;;;;;;;11.25;10.50;;;;;-143.93;100.00;62969.28;4934562;28;45827;-70
2021/10/31 01:36:35;;;;;;;;;11.75;10.75;;;;;-143.93;100.00;62969.28;4934226;28;45387;-70
2021/10/31 01:39:17;;;;;;;;;16.00;12.75;;;;;-143.93;100.00;62969.28;4937136;28;46374;-70
2021/10/31 01:42:12;;;;;;;;;10.75;10.75;;;;;-143.93;100.00;62969.28;5014193;28;45736;-70
2021/10/31 01:44:46;;;;;;;;;10.50;9.00;;;;;-143.93;100.00;62969.28;4933611;28;45461;-70
2021/10/31 01:47:17;;;;;;;;;11.00;11.00;;;;;-143.93;100.00;62969.28;4931975;28;45657;-70
2021/10/31 01:49:47;;;;;;;;;12.00;12.00;;;;;-143.93;100.00;62969.28;4933379;28;46340;-70
2021/10/31 01:52:35;;;;;;;;;11.50;10.50;;;;;-143.93;100.00;62969.28;4933137;28;45887;-70
2021/10/31 01:55:07;;;;;;;;;13.25;11.00;;;;;-143.93;100.00;62969.28;4926940;28;45496;-70
2021/10/31 01:57:39;;;;;;;;;17.50;11.75;;;;;-143.93;100.00;62969.28;4933655;28;45502;-70
2021/10/31 02:00:08;;;;;;;;;14.50;11.50;;;;;-143.93;100.00;62969.28;4928755;28;46442;-70
2021/10/31 02:02:37;;;;;;;;;18.00;12.75;;;;;-143.93;100.00;62969.28;4933449;28;45504;-70
2021/10/31 02:05:04;;;;;;;;;13.75;11.25;;;;;-143.93;100.00;62969.28;4933692;28;45550;-70
2021/10/31 02:07:31;;;;;;;;;9.00;8.75;;;;;-143.93;100.00;62969.28;4933862;28;45454;-70
2021/10/31 02:10:00;;;;;;;;;12.75;11.50;;;;;-143.93;100.00;62969.28;4932654;28;45769;-71
2021/10/31 02:12:27;;;;;;;;;11.75;11.00;;;;;-143.93;100.00;62969.28;4933804;28;45438;-71
2021/10/31 02:14:54;;;;;;;;;11.25;10.25;;;;;-143.93;100.00;62969.28;4932885;28;45447;-70
2021/10/31 02:17:20;;;;;;;;;12.75;10.75;;;;;-143.93;100.00;62969.28;4933939;28;45551;-70
2021/10/31 02:19:47;;;;;;;;;14.25;11.00;;;;;-143.93;100.00;62969.28;4932891;28;45702;-70
2021/10/31 02:22:24;;;;;;;;;8.50;7.25;;;;;-143.93;100.00;62969.28;5001207;28;46046;-70
2021/10/31 02:24:49;;;;;;;;;17.50;11.00;;;;;-143.93;100.00;62969.28;5013450;28;45286;-70
2021/10/31 02:27:20;;;;;;;;;11.25;11.00;;;;;-143.93;100.00;62969.28;5014235;28;45393;-70
2021/10/31 02:29:57;;;;;;;;;13.25;11.25;;;;;-143.93;100.00;62969.28;5012966;28;45464;-70
2021/10/31 02:32:25;;;;;;;;;13.25;11.25;;;;;-143.93;100.00;62969.28;5013601;28;45609;-71
2021/10/31 02:34:52;;;;;;;;;11.25;11.25;;;;;-143.93;100.00;62969.28;4993511;28;45496;-70
2021/10/31 02:37:17;;;;;;;;;11.50;10.50;;;;;-143.93;100.00;62969.28;5014601;28;45246;-70
2021/10/31 02:39:44;;;;;;;;;11.75;11.00;;;;;-143.93;100.00;62969.28;5013102;28;45680;-70
2021/10/31 02:42:09;;;;;;;;;11.50;11.50;;;;;-143.93;100.00;62969.28;5012969;28;46007;-70
2021/10/31 02:44:34;;;;;;;;;13.50;11.00;;;;;-143.93;100.00;62969.28;5012576;28;45833;-70
2021/10/31 02:47:00;;;;;;;;;15.75;13.50;;;;;-143.93;100.00;62969.28;5013357;28;45455;-70
2021/10/31 02:49:28;;;;;;;;;13.50;10.75;;;;;-143.93;100.00;62969.28;4991919;28;45760;-70
2021/10/31 02:52:04;;;;;;;;;13.75;12.25;;;;;-143.93;100.00;62969.28;5013832;28;45413;-70
2021/10/31 02:54:53;;;;;;;;;13.00;13.00;;;;;-143.93;100.00;62969.28;5010064;28;45497;-71
2021/10/31 02:57:48;;;;;;;;;11.50;10.75;;;;;-143.93;100.00;62969.28;5012837;28;45286;-70
2021/10/31 03:00:15;;;;;;;;;17.00;14.00;;;;;-143.93;100.00;62969.28;5004126;28;46416;-70
2021/10/31 03:02:41;;;;;;;;;13.25;11.75;;;;;-143.93;100.00;62969.28;5016478;28;45475;-70
2021/10/31 03:05:07;;;;;;;;;13.25;10.00;;;;;-143.93;100.00;62969.28;5016193;28;45664;-70
2021/10/31 03:07:32;;;;;;;;;13.00;10.50;;;;;-143.93;100.00;62969.28;5017215;28;45517;-70
2021/10/31 03:09:57;;;;;;;;;12.75;9.75;;;;;-143.93;100.00;62969.28;5016838;28;45518;-71
2021/10/31 03:12:23;;;;;;;;;11.75;9.00;;;;;-143.93;100.00;62969.28;5016669;28;45559;-70
2021/10/31 03:14:48;;;;;;;;;14.25;9.75;;;;;-143.93;100.00;62969.28;5016736;28;45495;-70
2021/10/31 03:17:13;;;;;;;;;13.00;10.00;;;;;-143.93;100.00;62969.28;5011554;28;45574;-70
2021/10/31 03:19:39;;;;;;;;;17.00;11.50;;;;;-143.93;100.00;62969.28;5010572;28;45569;-70
2021/10/31 03:22:06;;;;;;;;;11.25;9.00;;;;;-143.93;100.00;62969.28;5016393;28;45387;-71
2021/10/31 03:24:32;;;;;;;;;19.75;12.00;;;;;-143.93;100.00;62969.28;5017175;28;45499;-70
2021/10/31 03:26:58;;;;;;;;;13.00;11.75;;;;;-143.93;100.00;62969.28;5017078;28;45333;-70
2021/10/31 03:29:24;;;;;;;;;12.50;12.50;;;;;-143.93;100.00;62969.28;5016223;28;46759;-70
2021/10/31 03:31:51;;;;;;;;;18.00;12.50;;;;;-143.93;100.00;62969.28;5016445;28;45786;-70
2021/10/31 03:34:16;;;;;;;;;12.25;12.25;;;;;-143.93;100.00;62969.28;5015594;28;45334;-70
2021/10/31 03:36:41;;;;;;;;;16.25;12.75;;;;;-143.93;100.00;62969.28;5016555;28;45344;-70
2021/10/31 03:39:07;;;;;;;;;15.00;13.75;;;;;-143.93;100.00;62969.28;5016550;28;46179;-70
2021/10/31 03:41:33;;;;;;;;;14.00;12.00;;;;;-143.93;100.00;62969.28;5015589;28;45608;-70
2021/10/31 03:43:59;;;;;;;;;14.00;12.75;;;;;-143.93;100.00;62969.28;5015961;28;45522;-70
2021/10/31 03:46:24;;;;;;;;;17.50;13.50;;;;;-143.93;100.00;62969.28;5016701;28;45522;-70
2021/10/31 03:48:49;;;;;;;;;19.50;15.75;;;;;-143.93;100.00;62969.28;5015469;28;46608;-70
2021/10/31 03:51:15;;;;;;;;;19.00;11.75;;;;;-143.93;100.00;62969.28;5015947;28;45417;-71
2021/10/31 03:53:40;;;;;;;;;13.75;12.25;;;;;-143.93;100.00;62969.28;5015916;28;46505;-70
2021/10/31 03:56:06;;;;;;;;;19.75;14.25;;;;;-143.93;100.00;62969.28;5016048;28;45418;-70
2021/10/31 03:58:31;;;;;;;;;14.00;12.00;;;;;-143.93;100.00;62969.28;5016613;28;46543;-70
2021/10/31 04:00:56;;;;;;;;;14.50;12.50;;;;;-143.93;100.00;62969.28;5016220;28;45406;-70
2021/10/31 04:03:22;;;;;;;;;15.00;13.00;;;;;-143.93;100.00;62969.28;5016896;28;45500;-70
2021/10/31 04:05:47;;;;;;;;;15.50;13.00;;;;;-143.93;100.00;62969.28;5015580;28;45516;-70
2021/10/31 04:08:13;;;;;;;;;19.00;16.75;;;;;-143.93;100.00;62969.28;5013193;28;46116;-71
2021/10/31 04:10:38;;;;;;;;;15.50;14.75;;;;;-143.93;100.00;62969.28;5015507;28;45389;-71
2021/10/31 04:13:03;;;;;;;;;13.75;11.00;;;;;-143.93;100.00;62969.28;5016395;28;45409;-71
2021/10/31 04:15:29;;;;;;;;;14.00;11.50;;;;;-143.93;100.00;62969.28;5016827;28;45302;-70
2021/10/31 04:17:54;;;;;;;;;15.50;11.00;;;;;-143.93;100.00;62969.28;5014482;28;45480;-71
2021/10/31 04:20:20;;;;;;;;;20.00;14.25;;;;;-143.93;100.00;62969.28;5015466;28;45370;-71
2021/10/31 04:22:46;;;;;;;;;20.25;15.25;;;;;-143.93;100.00;62969.28;5015007;28;45463;-71
2021/10/31 04:25:11;;;;;;;;;19.75;15.25;;;;;-143.93;100.00;62969.28;5015531;28;45620;-70
2021/10/31 04:27:37;;;;;;;;;17.25;15.00;;;;;-143.93;100.00;62969.28;5015349;28;46654;-70
2021/10/31 04:30:04;;;;;;;;;16.50;13.75;;;;;-143.93;100.00;62969.28;5015324;28;45496;-71
2021/10/31 04:32:29;;;;;;;;;20.25;14.25;;;;;-143.93;100.00;62969.28;5015938;28;45764;-70
2021/10/31 04:34:55;;;;;;;;;17.75;15.50;;;;;-143.93;100.00;62969.28;5014539;28;45338;-71
2021/10/31 04:37:20;;;;;;;;;16.75;11.50;;;;;-143.93;100.00;62969.28;5014211;28;45535;-71
2021/10/31 04:39:47;;;;;;;;;16.00;14.25;;;;;-143.93;100.00;62969.28;5015704;28;45310;-70
2021/10/31 04:42:13;;;;;;;;;16.75;14.75;;;;;-143.93;100.00;62969.28;5010851;28;45466;-70
2021/10/31 04:44:39;;;;;;;;;18.00;15.50;;;;;-143.93;100.00;62969.28;5015650;28;45356;-70
2021/10/31 04:47:05;;;;;;;;;16.25;14.75;;;;;-143.93;100.00;62969.28;5014889;28;46264;-70
2021/10/31 04:49:31;;;;;;;;;16.75;13.00;;;;;-143.93;100.00;62969.28;5014617;28;45491;-70
2021/10/31 04:51:57;;;;;;;;;15.00;14.75;;;;;-143.93;100.00;62969.28;5015400;28;45484;-71
2021/10/31 04:54:24;;;;;;;;;18.25;14.50;;;;;-143.93;100.00;62969.28;5015953;28;45516;-70
2021/10/31 04:56:49;;;;;;;;;23.00;13.25;;;;;-143.93;100.00;62969.28;5015303;28;45470;-71
2021/10/31 04:59:15;;;;;;;;;15.50;14.00;;;;;-143.93;100.00;62969.28;5014438;28;45796;-70
2021/10/31 05:01:40;;;;;;;;;14.50;13.25;;;;;-143.93;100.00;62969.28;5014874;28;46845;-70
2021/10/31 05:04:06;;;;;;;;;15.25;12.25;;;;;-143.93;100.00;62969.28;5015154;28;45395;-70
2021/10/31 05:06:31;;;;;;;;;19.50;10.50;;;;;-143.93;100.00;62969.28;5014611;28;46614;-70
2021/10/31 05:08:56;;;;;;;;;11.00;11.00;;;;;-143.93;100.00;62969.28;5014692;28;48252;-71
2021/10/31 05:11:22;;;;;;;;;8.00;8.00;;;;;-143.93;100.00;62969.28;5015010;28;45471;-71
2021/10/31 05:13:48;;;;;;;;;12.00;9.25;;;;;-143.93;100.00;62969.28;5014372;28;45666;-70
2021/10/31 05:16:14;;;;;;;;;10.50;8.00;;;;;-143.93;100.00;62969.28;5014035;28;47116;-71
2021/10/31 05:18:40;;;;;;;;;11.00;8.75;;;;;-143.93;100.00;62969.28;5014402;28;45835;-70
2021/10/31 05:21:06;;;;;;;;;10.50;10.50;;;;;-143.93;100.00;62969.28;5014811;28;45396;-71
2021/10/31 05:23:32;;;;;;;;;10.25;9.75;;;;;-143.93;100.00;62969.28;5010591;28;45431;-71
2021/10/31 05:25:57;;;;;;;;;15.00;9.50;;;;;-143.93;100.00;62969.28;5014826;28;45395;-71
2021/10/31 05:28:24;;;;;;;;;14.00;9.50;;;;;-143.93;100.00;62969.28;5014381;28;45471;-71
2021/10/31 05:30:50;;;;;;;;;10.50;9.25;;;;;-143.93;100.00;62969.28;5014752;28;45806;-71
2021/10/31 05:33:17;;;;;;;;;5.00;5.00;;;;;-143.93;100.00;62969.28;5014439;28;45361;-71
2021/10/31 05:35:43;;;;;;;;;8.75;7.50;;;;;-143.93;100.00;62969.28;5014119;28;45515;-71
2021/10/31 05:38:10;;;;;;;;;11.25;8.25;;;;;-143.93;100.00;62969.28;5014188;28;45309;-71
2021/10/31 05:40:35;;;;;;;;;5.50;5.50;;;;;-143.93;100.00;62969.28;5014870;28;45407;-71
2021/10/31 05:43:00;;;;;;;;;8.25;7.00;;;;;-143.93;100.00;62969.28;5014736;28;45379;-71
2021/10/31 05:45:26;;;;;;;;;9.50;8.25;;;;;-143.93;100.00;62969.28;5014790;28;49609;-71
2021/10/31 05:47:53;;;;;;;;;10.00;8.00;;;;;-143.93;100.00;62969.28;5013588;28;45286;-71
2021/10/31 05:50:19;;;;;;;;;9.00;8.00;;;;;-143.93;100.00;62969.28;5013981;28;45478;-71
2021/10/31 05:52:45;;;;;;;;;8.50;8.00;;;;;-143.93;100.00;62969.28;5013945;28;45714;-71
2021/10/31 05:55:14;;;;;;;;;6.00;6.00;;;;;-143.93;100.00;62969.28;5014151;28;46337;-71
2021/10/31 05:57:40;;;;;;;;;6.75;6.75;;;;;-143.93;100.00;62969.28;5011659;28;45408;-71
2021/10/31 06:00:08;;;;;;;;;6.25;3.50;;;;;-143.93;100.00;62969.28;5015104;28;45629;-70
2021/10/31 06:02:34;;;;;;;;;9.00;5.75;;;;;-143.93;100.00;62969.28;5014241;28;45583;-71
2021/10/31 06:05:01;;;;;;;;;3.25;3.00;;;;;-143.93;100.00;62969.28;5013230;28;47216;-71
2021/10/31 06:07:26;;;;;;;;;3.25;3.25;;;;;-143.93;100.00;62969.28;5013721;28;45767;-71
2021/10/31 06:09:53;;;;;;;;;5.00;3.50;;;;;-143.93;100.00;62969.28;5013859;28;45380;-71
2021/10/31 06:12:18;;;;;;;;;7.00;3.75;;;;;-143.93;100.00;62969.28;5014452;28;45327;-71
2021/10/31 06:14:44;;;;;;;;;4.25;4.00;;;;;-143.93;100.00;62969.28;5013193;28;46277;-71
2021/10/31 06:17:11;;;;;;;;;9.50;5.00;;;;;-143.93;100.00;62969.28;5012662;28;45586;-71
2021/10/31 06:19:37;;;;;;;;;5.50;4.00;;;;;-143.93;100.00;62969.28;4996567;28;45293;-71
2021/10/31 06:22:03;;;;;;;;;4.00;3.00;;;;;-143.93;100.00;62969.28;5014508;28;45397;-71
2021/10/31 06:24:28;;;;;;;;;5.00;5.00;;;;;-143.93;100.00;62969.28;5010439;28;46390;-71
2021/10/31 06:26:54;;;;;;;;;4.00;2.50;;;;;-143.93;100.00;62969.28;5013607;28;45921;-71
2021/10/31 06:29:19;;;;;;;;;4.00;3.75;;;;;-143.93;100.00;62969.28;5013397;28;45400;-71
2021/10/31 06:31:45;;;;;;;;;4.25;4.00;;;;;-143.93;100.00;62969.28;5013527;28;45648;-71
2021/10/31 06:34:10;;;;;;;;;3.50;3.50;;;;;-143.93;100.00;62969.28;5014947;28;46173;-71
2021/10/31 06:36:36;;;;;;;;;3.00;3.00;;;;;-143.93;100.00;62969.28;5016531;28;45365;-71
2021/10/31 06:39:03;;;;;;;;;4.00;4.00;;;;;-143.93;100.00;62969.28;5017435;28;45651;-70
2021/10/31 06:41:28;;;;;;;;;4.75;4.75;;;;;-143.93;100.00;62969.28;5016859;28;45492;-71
2021/10/31 06:43:54;;;;;;;;;5.75;5.00;;;;;-143.93;100.00;62969.28;5016690;28;46440;-71
2021/10/31 06:46:20;;;;;;;;;4.75;2.75;;;;;-143.93;100.00;62969.28;5015769;28;45618;-70
2021/10/31 06:48:45;;;;;;;;;5.00;3.50;;;;;-143.93;100.00;62969.28;5017170;28;45443;-71
2021/10/31 06:51:10;;;;;;;;;5.50;4.25;;;;;-143.93;100.00;62969.28;5017895;28;45375;-71
2021/10/31 06:53:36;;;;;;;;;5.75;3.75;;;;;-143.93;100.00;62969.28;5017134;28;46081;-70
2021/10/31 06:56:02;;;;;;;;;5.25;4.00;;;;;-143.93;100.00;62969.28;5017415;28;45429;-71
2021/10/31 06:58:28;;;;;;;;;4.00;3.00;;;;;-143.93;100.00;62969.28;5017335;28;49308;-70
2021/10/31 07:00:53;;;;;;;;;5.25;4.00;;;;;-143.93;100.00;62969.28;5012410;28;45593;-71
2021/10/31 07:03:19;;;;;;;;;2.75;2.75;;;;;-143.93;100.00;62969.28;5017164;28;45636;-71
2021/10/31 07:05:45;;;;;;;;;6.50;4.00;;;;;-143.93;100.00;62969.28;5016005;28;45545;-71
2021/10/31 07:08:10;;;;;;;;;3.75;3.50;;;;;-143.93;100.00;62969.28;5016820;28;45593;-71
2021/10/31 07:10:36;;;;;;;;;4.50;4.00;;;;;-143.93;100.00;62969.28;5016928;28;45458;-71
2021/10/31 07:13:01;;;;;;;;;5.25;4.75;;;;;-143.93;100.00;62969.28;5016568;28;45626;-71
2021/10/31 07:15:26;;;;;;;;;6.00;3.25;;;;;-143.93;100.00;62969.28;5016902;28;45342;-71
2021/10/31 07:17:54;;;;;;;;;5.75;4.00;;;;;-143.93;100.00;62969.28;5016462;28;45558;-71
2021/10/31 07:20:19;;;;;;;;;6.00;6.00;;;;;-143.93;100.00;62969.28;5016876;28;45317;-71
2021/10/31 07:22:44;;;;;;;;;3.75;3.00;;;;;-143.93;100.00;62969.28;5016371;28;47250;-71
2021/10/31 07:25:11;;;;;;;;;4.00;3.75;;;;;-143.93;100.00;62969.28;5016209;28;45512;-71
2021/10/31 07:27:37;;;;;;;;;3.75;2.75;;;;;-143.93;100.00;62969.28;5016030;28;45353;-71
2021/10/31 07:30:03;;;;;;;;;3.50;3.00;;;;;-143.93;100.00;62969.28;5016900;28;45360;-71
2021/10/31 07:32:29;;;;;;;;;4.50;3.00;;;;;-143.93;100.00;62969.28;5016026;28;47019;-71
2021/10/31 07:34:54;;;;;;;;;5.00;4.50;;;;;-143.93;100.00;62969.28;5014224;28;45460;-71
2021/10/31 07:37:20;;;;;;;;;3.00;3.00;;;;;-143.93;100.00;62969.28;5016514;28;45434;-71
2021/10/31 07:39:45;;;;;;;;;4.00;4.00;;;;;-143.93;100.00;62969.28;5016643;28;45310;-71
2021/10/31 07:42:11;;;;;;;;;3.00;2.00;;;;;-143.93;100.00;62969.28;5016812;28;46920;-71
2021/10/31 07:44:37;;;;;;;;;3.50;2.25;;;;;-143.93;100.00;62969.28;5014295;28;45451;-72
2021/10/31 07:47:02;;;;;;;;;4.00;4.00;;;;;-143.93;100.00;62969.28;5009678;28;45553;-73
2021/10/31 07:49:28;;;;;;;;;3.00;3.00;;;;;-143.93;100.00;62969.28;5014194;28;45333;-70
2021/10/31 07:51:53;;;;;;;;;3.75;3.75;;;;;-143.93;100.00;62969.28;5012986;28;46456;-71
2021/10/31 07:54:23;;;;;;;;;2.75;2.50;;;;;-143.93;100.00;62969.28;5016087;28;47492;-70
2021/10/31 07:56:50;;;;;;;;;5.25;5.00;;;;;-143.93;100.00;62969.28;5014809;28;45615;-71
2021/10/31 07:59:17;;;;;;;;;5.50;2.75;;;;;-143.93;100.00;62969.28;5015209;28;45415;-71
2021/10/31 08:01:42;;;;;;;;;4.25;3.25;;;;;-143.93;100.00;62969.28;5015455;28;47503;-70
2021/10/31 08:04:07;;;;;;;;;5.25;5.25;;;;;-143.93;100.00;62969.28;5014630;28;45358;-71
2021/10/31 08:06:33;;;;;;;;;4.00;3.25;;;;;-143.93;100.00;62969.28;5015788;28;45679;-70
2021/10/31 08:08:58;;;;;;;;;5.50;5.00;;;;;-143.93;100.00;62969.28;5015871;28;45262;-71
2021/10/31 08:11:23;;;;;;;;;5.00;4.00;;;;;-143.93;100.00;62969.28;5015314;28;47742;-71
2021/10/31 08:13:49;;;;;;;;;5.00;4.75;;;;;-143.93;100.00;62969.28;5015038;28;47070;-71
2021/10/31 08:16:16;;;;;;;;;6.25;4.00;;;;;-143.93;100.00;62969.28;5013606;28;45400;-70
2021/10/31 08:18:41;;;;;;;;;6.50;6.00;;;;;-143.93;100.00;62969.28;5015736;28;45636;-70
2021/10/31 08:21:08;;;;;;;;;8.00;6.50;;;;;-143.93;100.00;62969.28;5014596;28;46014;-70
2021/10/31 08:23:34;;;;;;;;;6.25;6.25;;;;;-143.93;100.00;62969.28;5015019;28;45523;-70
2021/10/31 08:26:00;;;;;;;;;9.25;8.75;;;;;-143.93;100.00;62969.28;5015665;28;45449;-71
2021/10/31 08:28:26;;;;;;;;;7.75;7.75;;;;;-143.93;100.00;62969.28;5015017;28;45509;-70
2021/10/31 08:30:58;;;;;;;;;1.00;1.00;;;;;-143.93;100.00;62969.28;5015687;28;45424;-72
2021/10/31 08:33:34;;;;;;;;;9.75;7.50;;;;;-143.93;100.00;62969.28;4995565;28;45707;-71
2021/10/31 08:36:02;;;;;;;;;8.00;6.00;;;;;-143.93;100.00;62969.28;5015525;28;45623;-71
2021/10/31 08:38:27;;;;;;;;;8.75;8.00;;;;;-143.93;100.00;62969.28;5015311;28;45345;-71
2021/10/31 08:40:55;;;;;;;;;5.00;5.00;;;;;-143.93;100.00;62969.28;5015575;28;46533;-71
2021/10/31 08:43:21;;;;;;;;;7.00;5.00;;;;;-143.93;100.00;62969.28;5013955;28;45455;-70
2021/10/31 08:45:47;;;;;;;;;7.00;5.00;;;;;-143.93;100.00;62969.28;5015033;28;45266;-70
2021/10/31 08:48:14;;;;;;;;;5.25;4.50;;;;;-143.93;100.00;62969.28;5014354;28;45474;-70
2021/10/31 08:50:39;;;;;;;;;4.50;3.50;;;;;-143.93;100.00;62969.28;5014580;28;45531;-70
2021/10/31 08:53:06;;;;;;;;;5.25;5.25;;;;;-143.93;100.00;62969.28;5015138;28;45486;-70
2021/10/31 08:55:32;;;;;;;;;6.25;4.50;;;;;-143.93;100.00;62969.28;5015471;28;45342;-70
2021/10/31 08:57:58;;;;;;;;;5.00;4.00;;;;;-143.93;100.00;62969.28;5013786;28;45350;-70
2021/10/31 09:00:24;;;;;;;;;5.25;4.00;;;;;-143.93;100.00;62969.28;5015874;28;45394;-70
2021/10/31 09:02:50;;;;;;;;;5.75;4.00;;;;;-143.93;100.00;62969.28;5014676;28;45728;-70
2021/10/31 09:05:16;;;;;;;;;7.75;4.25;;;;;-143.93;100.00;62969.28;5013744;28;45549;-70
2021/10/31 09:07:41;;;;;;;;;2.75;0.00;;;;;-143.93;100.00;62969.28;5015033;28;45414;-70
2021/10/31 09:10:06;;;;;;;;;9.00;5.50;;;;;-143.93;100.00;62969.28;5014744;28;49536;-70
2021/10/31 09:12:32;;;;;;;;;6.00;5.00;;;;;-143.93;100.00;62969.28;5014356;28;45523;-70
2021/10/31 09:14:57;;;;;;;;;5.00;5.00;;;;;-143.93;100.00;62969.28;4997419;28;45473;-70
2021/10/31 09:17:23;;;;;;;;;6.25;4.00;;;;;-143.93;100.00;62969.28;5014986;28;45377;-70
2021/10/31 09:19:57;;;;;;;;;2.75;2.75;;;;;;;;5107337;27;45301;-69
2021/10/31 09:22:23;;;;;;;;;4.00;4.00;;;;;;;;5094400;27;45562;-69
2021/10/31 09:24:50;;;;;;;;;4.50;4.00;;;;;;;;5092060;27;45425;-69
2021/10/31 09:27:15;;;;;;;;;4.50;4.50;;;;;;;;5096910;27;45309;-69
2021/10/31 09:29:41;;;;;;;;;4.33;3.00;;;;;;;;5100398;27;46656;-69
2021/10/31 09:32:06;;;;;;;;;3.00;3.00;;;;;;;;5102532;27;45429;-69
2021/10/31 09:34:31;;;;;;;;;3.25;3.25;;;;;;;;5104443;27;45488;-69
2021/10/31 09:36:57;;;;;;;;;4.00;3.00;;;;;;;;5099677;27;45456;-69
2021/10/31 09:39:23;;;;;;;;;5.00;4.25;;;;;;;;5096100;27;45453;-70
2021/10/31 09:41:49;;;;;;;;;4.75;3.00;;;;;;;;5089451;27;45709;-70
2021/10/31 09:46:40;;;;;;;;;4.00;4.00;;;;;;;;5084775;27;45511;-70
2021/10/31 09:49:06;;;;;;;;;5.00;2.50;;;;;;;;5087299;27;45574;-70
2021/10/31 09:51:31;;;;;;;;;3.75;3.75;;;;;;;;5085669;27;45369;-70
2021/10/31 09:53:57;;;;;;;;;4.50;3.75;;;;;;;;5083688;27;46154;-70
2021/10/31 09:56:22;;;;;;;;;3.00;3.00;;;;;;;;5093230;27;45644;-70
2021/10/31 09:58:50;;;;;;;;;3.00;2.00;;;;;;;;5086457;27;46431;-69
2021/10/31 10:01:21;;;;;;;;;2.00;2.00;;;;;;;;5087989;27;45445;-69
2021/10/31 10:03:52;;;;;;;;;2.00;2.00;;;;;;;;5104078;27;45420;-70
2021/10/31 10:06:22;;;;;;;;;4.00;4.00;;;;;;;;5075941;27;45452;-69
2021/10/31 10:08:58;;;;;;;;;3.25;3.00;;;;;;;;5076022;27;45452;-69
2021/10/31 10:11:24;;;;;;;;;3.00;3.00;;;;;;;;5085561;27;48086;-69
2021/10/31 10:13:49;;;;;;;;;1.75;1.75;;;;;;;;5086252;27;45356;-69
2021/10/31 10:16:26;;;;;;;;;3.50;1.50;;;;;;;;5074039;27;45555;-70
2021/10/31 10:18:52;;;;;;;;;2.25;1.50;;;;;;;;5072861;27;46110;-69
2021/10/31 10:21:27;;;;;;;;;1.33;1.33;;;;;;;;5099516;27;45439;-69
2021/10/31 10:24:00;;;;;;;;;3.25;3.25;;;;;;;;5101770;27;45898;-69
2021/10/31 10:26:33;;;;;;;;;3.50;2.50;;;;;;;;5094822;27;45422;-69
2021/10/31 10:29:15;;;;;;;;;1.50;1.50;;;;;;;;5095614;27;46519;-69
2021/10/31 10:31:41;;;;;;;;;1.50;1.50;;;;;;;;5080166;27;45768;-69
2021/10/31 10:34:06;;;;;;;;;2.00;2.00;;;;;;;;5089665;27;45398;-70
2021/10/31 10:36:35;;;;;;;;;0.50;0.50;;;;;;;;5081622;27;45316;-69
2021/10/31 10:39:09;;;;;;;;;12.25;8.50;;;;;;;;5078469;27;47017;-70
2021/10/31 10:41:43;;;;;;;;;1.00;1.00;;;;;;;;5078454;27;45786;-69
2021/10/31 10:44:26;;;;;;;;;3.25;1.00;;;;;;;;5075416;27;45546;-70
2021/10/31 10:46:54;;;;;;;;;0.75;0.75;;;;;;;;5074567;27;45566;-69
2021/10/31 10:49:20;;;;;;;;;2.75;1.25;;;;;;;;5073096;27;47316;-69
2021/10/31 10:52:07;;;;;;;;;1.00;0.75;;;;;;;;5071895;27;47156;-68
2021/10/31 10:54:34;;;;;;;;;1.00;1.00;;;;;;;;5070468;28;45478;-70
2021/10/31 10:57:05;;;;;;;;;1.00;1.00;;;;;;;;5069783;27;45574;-69
2021/10/31 10:59:31;;;;;;;;;1.50;1.50;;;;;;;;5083709;27;47256;-69
2021/10/31 11:02:13;;;;;;;;;1.50;1.50;;;;;;;;5067036;27;45671;-70
2021/10/31 11:04:40;;;;;;;;;2.00;2.00;;;;;;;;5078303;27;45479;-69
2021/10/31 11:07:05;;;;;;;;;1.00;1.00;;;;;;;;5073016;27;45695;-69
2021/10/31 11:10:00;;;;;;;;;2.25;1.75;;;;;;;;5116359;27;48242;-69
2021/10/31 11:12:27;;;;;;;;;1.25;1.25;;;;;;;;5026763;28;45649;-70
2021/10/31 11:14:53;;;;;;;;;2.75;2.00;;;;;;;;5024952;28;45878;-69
2021/10/31 11:17:20;;;;;;;;;2.00;2.00;;;;;;;;5016575;28;45530;-69
2021/10/31 11:19:46;;;;;;;;;0.25;0.25;;;;;;;;5023446;28;46296;-69
2021/10/31 11:22:11;;;;;;;;;3.00;2.00;;;;;;;;5026786;28;45549;-69
2021/10/31 11:24:37;;;;;;;;;1.00;1.00;;;;;;;;5030173;28;45553;-70
2021/10/31 11:27:03;;;;;;;;;1.25;1.00;;;;;;;;5023571;28;45521;-69
2021/10/31 11:29:31;;;;;;;;;2.00;2.00;;;;;;;;5026354;28;47004;-68
2021/10/31 11:31:56;;;;;;;;;1.00;1.00;;;;;;;;5025203;28;45671;-68
2021/10/31 11:34:23;;;;;;;;;3.00;1.00;;;;;;;;5028091;28;45706;-68
2021/10/31 11:36:49;;;;;;;;;0.50;0.50;;;;;;;;5030722;28;45576;-68
2021/10/31 11:39:14;;;;;;;;;0.67;0.67;;;;;;;;5026505;28;46680;-69
2021/10/31 11:41:39;;;;;;;;;2.33;2.33;;;;;;;;5029597;28;45436;-69